WetterOnline ( http://www.wetteronline.de )

Wetter aktuell Quitzow

Aktuelles Wetter: Seehausen (23m)

6-stündlich | Neueste Meldungen
Ortszeit Temperatur Wetter
Sa, 23.03. 1:00 5.2° C wolkenlos
Fr, 22.03. 19:00 11.2° C wolkenlos
Fr, 22.03. 13:00 11.5° C bedeckt
Fr, 22.03. 7:00 9.1° C bedeckt
Fr, 22.03. 1:00 10.0° C bedeckt
Do, 21.03. 19:00 10.5° C wolkig
Do, 21.03. 13:00 13.2° C bedeckt
Do, 21.03. 7:00 9.1° C bedeckt
Ortszeit Temperatur Wetter
Sa, 23.03. 4:00 4.7° C Nebel
Sa, 23.03. 3:50 4.7° C Nebel
Sa, 23.03. 3:40 4.7° C Nebel
Sa, 23.03. 3:30 4.6° C Nebel
Sa, 23.03. 3:20 4.6° C Nebel
Sa, 23.03. 3:10 4.5° C Nebel
Sa, 23.03. 3:00 4.4° C Nebel
Sa, 23.03. 2:30 4.4° C wolkenlos
Sa, 23.03. 2:00 4.9° C Nebel
Sa, 23.03. 1:30 5.2° C wolkenlos
Sa, 23.03. 1:00 5.2° C wolkenlos
Ortszeit Relative Feuchte Sichtweite
Sa, 23.03. 1:00 97% 1.9 km
Fr, 22.03. 19:00 81% 6 km
Fr, 22.03. 13:00 75% 6 km
Fr, 22.03. 7:00 86% 5.0 km
Fr, 22.03. 1:00 83% 5.0 km
Do, 21.03. 19:00 79% 10 km
Do, 21.03. 13:00 68% 12 km
Do, 21.03. 7:00 86% 5.0 km
Ortszeit Relative Feuchte Sichtweite
Sa, 23.03. 4:00 99% 100 m
Sa, 23.03. 3:50 99% -
Sa, 23.03. 3:40 99% -
Sa, 23.03. 3:30 99% 100 m
Sa, 23.03. 3:20 99% -
Sa, 23.03. 3:10 98% -
Sa, 23.03. 3:00 99% 0.2 km
Sa, 23.03. 2:30 99% 1.1 km
Sa, 23.03. 2:00 98% 0.8 km
Sa, 23.03. 1:30 97% 1.4 km
Sa, 23.03. 1:00 97% 1.9 km
Ortszeit Niederschlagsmenge Niederschlagsart
Sa, 23.03. 1:00 0.0 l/m2 in 6 Std. -
Fr, 22.03. 19:00 0.0 l/m2 in 12 Std. -
Fr, 22.03. 13:00 0.0 l/m2 in 6 Std. -
Fr, 22.03. 7:00 0.0 l/m2 in 12 Std. -
Fr, 22.03. 1:00 0.0 l/m2 in 6 Std. -
Do, 21.03. 19:00 0.0 l/m2 in 12 Std. -
Do, 21.03. 13:00 0.0 l/m2 in 6 Std. -
Do, 21.03. 7:00 0.0 l/m2 in 12 Std. -
Ortszeit Niederschlagsmenge Niederschlagsart
Sa, 23.03. 4:00 0.0 l/m2 in 1 Std. -
Sa, 23.03. 3:50 keine Meldung -
Sa, 23.03. 3:40 keine Meldung -
Sa, 23.03. 3:30 0.0 l/m2 in 1 Std. -
Sa, 23.03. 3:20 keine Meldung -
Sa, 23.03. 3:10 keine Meldung -
Sa, 23.03. 3:00 0.0 l/m2 in 1 Std. -
Sa, 23.03. 2:30 0.0 l/m2 in 1 Std. -
Sa, 23.03. 2:00 0.0 l/m2 in 1 Std. -
Sa, 23.03. 1:30 0.0 l/m2 in 1 Std. -
Sa, 23.03. 1:00 0.0 l/m2 in 1 Std. -
Ortszeit Stärke Spitze Richtung
km/h Bft. km/h Grad Sektor
Sa, 23.03. 1:00 7 2 25 130° SO
Fr, 22.03. 19:00 11 2 22 120° SO
Fr, 22.03. 13:00 11 2 18 120° SO
Fr, 22.03. 7:00 6 1 17 350° N
Fr, 22.03. 1:00 7 2 14 310° NW
Do, 21.03. 19:00 7 2 29 290° W
Do, 21.03. 13:00 17 3 33 260° W
Do, 21.03. 7:00 7 2 22 220° SW
Ortszeit Stärke Spitze Richtung
km/h Bft. km/h Grad Sektor
Sa, 23.03. 4:00 7 2 11 130° SO
Sa, 23.03. 3:50 7 2 - 130° SO
Sa, 23.03. 3:40 7 2 - 140° SO
Sa, 23.03. 3:30 7 2 11 130° SO
Sa, 23.03. 3:20 7 2 - 130° SO
Sa, 23.03. 3:10 7 2 - 130° SO
Sa, 23.03. 3:00 7 2 11 130° SO
Sa, 23.03. 2:30 7 2 11 140° SO
Sa, 23.03. 2:00 4 1 7 130° SO
Sa, 23.03. 1:30 7 2 7 140° SO
Sa, 23.03. 1:00 7 2 11 130° SO
Ortszeit Untergrenze Bedeckung Gattung
total tief tief mittel hoch
Sa, 23.03. 1:00 - 0/8 0/8 - - -
Fr, 22.03. 19:00 12000 m 0/8 0/8 - - -
Fr, 22.03. 13:00 480 m 8/8 8/8 - - -
Fr, 22.03. 7:00 330 m 8/8 8/8 - - -
Fr, 22.03. 1:00 480 m 8/8 8/8 - - -
Do, 21.03. 19:00 630 m 8/8 1/8 - - -
Do, 21.03. 13:00 690 m 8/8 8/8 - - -
Do, 21.03. 7:00 570 m 8/8 8/8 - - -
Ortszeit Bedeckungsgrad in Achtel und Wolkenuntergrenze
Sa, 23.03. 4:00 8(<30m)
Sa, 23.03. 3:50 8(<30m)
Sa, 23.03. 3:40 8(<30m)
Sa, 23.03. 3:30 8(<30m)
Sa, 23.03. 3:20 8(<30m)
Sa, 23.03. 3:10 7(<30m)
Sa, 23.03. 3:00 4(<30m)
Sa, 23.03. 2:30 keine Wolken
Sa, 23.03. 2:00 keine Wolken
Sa, 23.03. 1:30 keine Wolken
Sa, 23.03. 1:00 keine Wolken
Ortszeit Luftdruck NN (hPa) Tendenz (hPa in 3 Std.)
Sa, 23.03. 1:00 1027 - 1,7
Fr, 22.03. 19:00 1029 - 1,4
Fr, 22.03. 13:00 1033 - 1,4
Fr, 22.03. 7:00 1034 + 0,9
Fr, 22.03. 1:00 1033 - 0,2
Do, 21.03. 19:00 1033 + 0,1
Do, 21.03. 13:00 1034 - 0,2
Do, 21.03. 7:00 1033 + 0,2
Ortszeit Luftdruck NN (hPa) Tendenz (hPa in 3 Std.)
Sa, 23.03. 4:00 1025 - 1,5
Sa, 23.03. 3:50 1025 keine Meldung
Sa, 23.03. 3:40 1025 keine Meldung
Sa, 23.03. 3:30 1025 - 2,0
Sa, 23.03. 3:20 1025 keine Meldung
Sa, 23.03. 3:10 1025 keine Meldung
Sa, 23.03. 3:00 1026 - 1,9
Sa, 23.03. 2:30 1026 - 2,0
Sa, 23.03. 2:00 1026 - 2,2
Sa, 23.03. 1:30 1026 - 1,9
Sa, 23.03. 1:00 1027 - 1,7
Ortszeit Schneehöhe (cm)
Sa, 23.03. 1:00 0
Fr, 22.03. 19:00 0
Fr, 22.03. 13:00 0
Fr, 22.03. 7:00 0
Fr, 22.03. 1:00 0
Do, 21.03. 19:00 0
Do, 21.03. 13:00 0
Do, 21.03. 7:00 0
Ortszeit Schneehöhe (cm)
Sa, 23.03. 4:00 0
Sa, 23.03. 3:50 0
Sa, 23.03. 3:40 0
Sa, 23.03. 3:30 0
Sa, 23.03. 3:20 0
Sa, 23.03. 3:10 0
Sa, 23.03. 3:00 0
Sa, 23.03. 2:30 0
Sa, 23.03. 2:00 0
Sa, 23.03. 1:30 0
Sa, 23.03. 1:00 0
Link zu dieser Seite / Seite empfehlen

Das Wetter in ...